createdAt,value
2018-11-06T00:01:20.593Z,12.83
2018-11-06T00:03:48.839Z,13.30
2018-11-06T00:06:17.860Z,14.00
2018-11-06T00:08:46.124Z,13.70
2018-11-06T00:11:15.150Z,14.33
2018-11-06T00:13:43.389Z,14.30
2018-11-06T00:16:12.419Z,14.70
2018-11-06T00:18:40.674Z,13.60
2018-11-06T00:21:08.935Z,14.50
2018-11-06T00:23:37.177Z,14.13
2018-11-06T00:26:05.433Z,14.00
2018-11-06T00:28:33.763Z,13.60
2018-11-06T00:31:02.005Z,13.87
2018-11-06T00:33:30.264Z,13.57
2018-11-06T00:35:58.529Z,12.90
2018-11-06T00:38:27.113Z,13.73
2018-11-06T00:40:55.357Z,13.40
2018-11-06T00:43:23.602Z,13.60
2018-11-06T00:45:52.632Z,13.17
2018-11-06T00:48:20.868Z,14.10
2018-11-06T00:50:49.884Z,13.40
2018-11-06T00:53:18.148Z,14.17
2018-11-06T00:55:46.393Z,12.63
2018-11-06T00:58:14.663Z,12.43
2018-11-06T01:00:42.936Z,13.07
2018-11-06T01:03:11.563Z,13.07
2018-11-06T01:05:39.817Z,11.50
2018-11-06T01:08:08.838Z,11.80
2018-11-06T01:10:37.086Z,11.83
2018-11-06T01:13:06.099Z,11.80
2018-11-06T01:15:34.367Z,11.67
2018-11-06T01:18:02.619Z,11.10
2018-11-06T01:26:13.938Z,11.73
2018-11-06T01:28:42.179Z,11.63
2018-11-06T01:31:10.426Z,11.60
2018-11-06T01:33:38.702Z,12.23
2018-11-06T01:36:06.945Z,11.07
2018-11-06T01:38:36.797Z,12.57
2018-11-06T01:41:05.362Z,12.37
2018-11-06T01:43:33.669Z,12.70
2018-11-06T01:46:01.914Z,11.80
2018-11-06T01:48:30.176Z,12.67
2018-11-06T01:50:58.465Z,13.80
2018-11-06T01:53:26.714Z,13.10
2018-11-06T01:55:55.729Z,13.03
2018-11-06T01:58:24.018Z,12.83
2018-11-06T02:00:52.283Z,12.50
2018-11-06T02:03:20.539Z,13.13
2018-11-06T02:05:48.806Z,13.07
2018-11-06T02:08:17.834Z,13.77
2018-11-06T02:10:46.163Z,12.93
2018-11-06T02:13:14.397Z,13.23
2018-11-06T02:15:42.638Z,13.77
2018-11-06T02:18:10.910Z,14.03
2018-11-06T02:20:39.170Z,12.40
2018-11-06T02:23:08.197Z,12.20
2018-11-06T02:25:36.455Z,12.20
2018-11-06T02:28:04.713Z,13.90
2018-11-06T02:30:33.744Z,13.87
2018-11-06T02:33:02.016Z,13.40
2018-11-06T02:35:30.272Z,14.50
2018-11-06T02:37:58.522Z,13.20
2018-11-06T02:40:27.567Z,14.27
2018-11-06T02:42:55.825Z,13.90
2018-11-06T02:45:24.070Z,13.60
2018-11-06T02:47:53.110Z,14.40
2018-11-06T02:50:21.352Z,14.20
2018-11-06T02:52:49.606Z,14.20
2018-11-06T02:55:18.654Z,14.43
2018-11-06T02:57:46.934Z,13.93
2018-11-06T03:00:15.179Z,13.93
2018-11-06T03:02:43.517Z,13.03
2018-11-06T03:05:11.761Z,13.30
2018-11-06T03:07:40.007Z,12.47
2018-11-06T03:10:08.320Z,13.33
2018-11-06T03:12:37.298Z,12.27
2018-11-06T03:15:06.682Z,12.50
2018-11-06T03:17:34.936Z,12.57
2018-11-06T03:20:03.970Z,12.50
2018-11-06T03:22:32.550Z,12.73
2018-11-06T03:25:00.794Z,12.93
2018-11-06T03:27:29.072Z,11.93
2018-11-06T03:29:57.361Z,13.37
2018-11-06T03:32:25.602Z,13.20
2018-11-06T03:34:54.621Z,12.93
2018-11-06T03:37:22.886Z,13.13
2018-11-06T03:39:51.159Z,14.07
2018-11-06T03:42:19.406Z,13.53
2018-11-06T03:44:47.782Z,14.13
2018-11-06T03:47:16.600Z,13.00
2018-11-06T03:49:44.859Z,13.43
2018-11-06T03:52:13.884Z,14.63
2018-11-06T03:54:42.140Z,13.53
2018-11-06T03:57:11.161Z,13.53
2018-11-06T03:59:39.443Z,15.07
2018-11-06T04:02:07.702Z,15.00
2018-11-06T04:04:35.946Z,14.80
2018-11-06T04:07:04.974Z,14.80
2018-11-06T04:09:33.266Z,14.57
2018-11-06T04:12:01.522Z,15.47
2018-11-06T04:14:30.031Z,15.47
2018-11-06T04:16:58.291Z,14.53
2018-11-06T04:19:26.546Z,13.70
2018-11-06T04:21:54.809Z,13.73
2018-11-06T04:24:23.085Z,14.17
2018-11-06T04:26:51.335Z,13.83
2018-11-06T04:29:20.364Z,14.00
2018-11-06T04:31:48.611Z,14.13
2018-11-06T04:34:17.648Z,15.43
2018-11-06T04:36:45.894Z,14.63
2018-11-06T04:39:14.177Z,15.23
2018-11-06T04:41:42.422Z,15.27
2018-11-06T04:44:11.437Z,15.50
2018-11-06T04:46:39.703Z,15.27
2018-11-06T04:49:08.743Z,14.13
2018-11-06T04:51:37.010Z,13.93
2018-11-06T04:54:05.301Z,14.63
2018-11-06T04:56:33.576Z,13.97
2018-11-06T04:59:01.820Z,13.93
2018-11-06T05:01:30.122Z,14.07
2018-11-06T05:03:58.412Z,13.20
2018-11-06T05:06:26.668Z,14.03
2018-11-06T05:08:55.071Z,14.80
2018-11-06T05:11:23.311Z,13.40
2018-11-06T05:13:51.721Z,13.17
2018-11-06T05:16:19.939Z,12.97
2018-11-06T05:18:48.209Z,13.77
2018-11-06T05:21:16.459Z,12.97
2018-11-06T05:23:44.750Z,13.60
2018-11-06T05:26:13.794Z,14.40
2018-11-06T05:28:42.053Z,13.47
2018-11-06T05:31:10.305Z,13.23
2018-11-06T05:33:38.557Z,13.77
2018-11-06T05:36:07.886Z,12.73
2018-11-06T05:38:36.913Z,12.90
2018-11-06T05:41:05.158Z,13.20
2018-11-06T05:43:33.421Z,12.77
2018-11-06T05:46:01.693Z,13.73
2018-11-06T05:48:29.981Z,12.40
2018-11-06T05:50:58.230Z,13.00
2018-11-06T05:53:27.246Z,12.87
2018-11-06T05:55:55.526Z,12.33
2018-11-06T05:58:23.777Z,11.97
2018-11-06T06:00:52.791Z,13.47
2018-11-06T06:03:21.062Z,12.87
2018-11-06T06:05:49.318Z,12.67
2018-11-06T06:08:18.382Z,13.10
2018-11-06T06:10:46.626Z,13.13
2018-11-06T06:13:14.898Z,13.30
2018-11-06T06:15:43.141Z,14.17
2018-11-06T06:18:11.459Z,14.23
2018-11-06T06:20:39.714Z,13.70
2018-11-06T06:23:07.978Z,13.83
2018-11-06T06:25:36.224Z,13.40
2018-11-06T06:28:04.512Z,13.33
2018-11-06T06:30:33.542Z,14.17
2018-11-06T06:33:01.803Z,14.47
2018-11-06T06:35:30.334Z,13.60
2018-11-06T06:37:58.735Z,13.97
2018-11-06T06:40:26.941Z,14.07
2018-11-06T06:42:55.203Z,13.37
2018-11-06T06:45:23.447Z,13.23
2018-11-06T06:47:51.727Z,12.93
2018-11-06T06:50:20.734Z,12.57
2018-11-06T06:52:50.652Z,12.63
2018-11-06T06:55:19.683Z,13.50
2018-11-06T06:57:47.941Z,13.33
2018-11-06T07:00:16.206Z,14.83
2018-11-06T07:02:44.454Z,13.47
2018-11-06T07:05:13.458Z,14.47
2018-11-06T07:07:42.777Z,13.00
2018-11-06T07:10:12.602Z,13.57
2018-11-06T07:12:40.918Z,12.83
2018-11-06T07:15:09.870Z,11.83
2018-11-06T07:17:38.119Z,12.93
2018-11-06T07:20:06.373Z,11.67
2018-11-06T07:22:35.406Z,12.03
2018-11-06T07:25:03.711Z,11.43
2018-11-06T07:27:31.987Z,11.60
2018-11-06T07:30:00.995Z,11.47
2018-11-06T07:32:29.238Z,11.53
2018-11-06T07:34:57.727Z,11.33
2018-11-06T07:37:25.759Z,11.70
2018-11-06T07:39:54.019Z,11.20
2018-11-06T07:42:23.046Z,12.23
2018-11-06T07:44:51.310Z,11.63
2018-11-06T07:47:19.577Z,11.83
2018-11-06T07:49:47.829Z,12.33
2018-11-06T07:52:16.864Z,12.57
2018-11-06T07:54:45.440Z,12.40
2018-11-06T07:57:13.690Z,13.23
2018-11-06T07:59:41.955Z,12.83
2018-11-06T08:02:11.002Z,12.27
2018-11-06T08:04:39.258Z,13.03
2018-11-06T08:07:07.506Z,13.00
2018-11-06T08:09:36.681Z,13.53
2018-11-06T08:12:05.907Z,13.80
2018-11-06T08:14:35.655Z,15.33
2018-11-06T08:17:03.801Z,13.93
2018-11-06T08:19:32.119Z,14.20
2018-11-06T08:22:00.487Z,14.77
2018-11-06T08:24:28.886Z,13.97
2018-11-06T08:26:57.141Z,14.87
2018-11-06T08:29:25.458Z,14.77
2018-11-06T08:31:55.056Z,15.37
2018-11-06T08:34:22.761Z,14.90
2018-11-06T08:36:51.795Z,15.47
2018-11-06T08:39:20.598Z,14.70
2018-11-06T08:41:48.826Z,14.23
2018-11-06T08:44:17.081Z,14.67
2018-11-06T08:46:45.332Z,13.50
2018-11-06T08:49:14.362Z,13.80
2018-11-06T08:51:42.605Z,14.03
2018-11-06T08:54:10.884Z,14.43
2018-11-06T08:56:39.924Z,13.43
2018-11-06T08:59:08.188Z,14.10
2018-11-06T09:01:36.466Z,14.07
2018-11-06T09:04:05.026Z,13.33
2018-11-06T09:06:33.274Z,13.67
2018-11-06T09:09:02.385Z,13.50
2018-11-06T09:11:30.571Z,13.97
2018-11-06T09:13:58.835Z,12.47
2018-11-06T09:16:27.083Z,12.33
2018-11-06T09:18:56.113Z,12.80
2018-11-06T09:21:24.389Z,12.77
2018-11-06T09:23:53.054Z,13.53
2018-11-06T09:26:21.329Z,12.00
2018-11-06T09:28:49.590Z,12.83
2018-11-06T09:31:18.642Z,12.73
2018-11-06T09:33:46.887Z,13.00
2018-11-06T09:36:15.163Z,13.63
2018-11-06T09:38:43.433Z,13.33
2018-11-06T09:41:11.699Z,12.20
2018-11-06T09:43:40.032Z,14.00
2018-11-06T09:46:08.299Z,13.77
2018-11-06T09:48:36.555Z,14.77
2018-11-06T09:51:04.805Z,14.13
2018-11-06T09:53:33.074Z,15.07
2018-11-06T09:56:01.536Z,14.63
2018-11-06T09:58:29.765Z,16.07
2018-11-06T10:00:58.023Z,15.80
2018-11-06T10:03:26.285Z,14.97
2018-11-06T10:05:54.549Z,15.70
2018-11-06T10:08:22.813Z,15.43
2018-11-06T10:10:51.851Z,16.50
2018-11-06T10:13:20.457Z,16.27
2018-11-06T10:15:48.729Z,16.97
2018-11-06T10:18:16.950Z,16.53
2018-11-06T10:20:45.227Z,17.07
2018-11-06T10:23:13.609Z,16.77
2018-11-06T10:25:41.863Z,17.00
2018-11-06T10:28:10.883Z,16.73
2018-11-06T10:30:39.186Z,17.17
2018-11-06T10:33:08.379Z,16.47
2018-11-06T10:35:36.628Z,15.63
2018-11-06T10:38:04.965Z,16.80
2018-11-06T10:40:33.494Z,15.93
2018-11-06T10:43:01.740Z,16.33
2018-11-06T10:45:31.956Z,16.37
2018-11-06T10:48:00.186Z,15.60
2018-11-06T10:50:28.435Z,16.87
2018-11-06T10:52:56.705Z,16.10
2018-11-06T10:55:24.962Z,16.60
2018-11-06T10:57:54.324Z,15.90
2018-11-06T11:00:22.613Z,16.27
2018-11-06T11:02:50.878Z,15.27
2018-11-06T11:05:19.147Z,16.77
2018-11-06T11:07:48.009Z,17.07
2018-11-06T11:10:16.342Z,16.23
2018-11-06T11:12:44.582Z,16.23
2018-11-06T11:15:12.837Z,17.30
2018-11-06T11:17:41.081Z,17.37
2018-11-06T11:20:09.384Z,17.43
2018-11-06T11:22:37.626Z,16.83
2018-11-06T11:25:06.648Z,17.70
2018-11-06T11:27:35.243Z,18.67
2018-11-06T11:30:04.370Z,17.20
2018-11-06T11:32:32.612Z,17.33
2018-11-06T11:35:00.919Z,17.90
2018-11-06T11:37:29.138Z,16.60
2018-11-06T11:39:58.178Z,18.13
2018-11-06T11:42:26.430Z,18.17
2018-11-06T11:44:54.669Z,16.83
2018-11-06T11:47:22.938Z,17.27
2018-11-06T11:49:51.949Z,18.00
2018-11-06T11:52:20.222Z,16.77
2018-11-06T11:54:48.478Z,17.53
2018-11-06T11:57:17.830Z,17.73
2018-11-06T11:59:46.125Z,18.03
2018-11-06T12:02:14.412Z,18.73
2018-11-06T12:04:42.622Z,18.30
2018-11-06T12:07:11.657Z,18.73
2018-11-06T12:09:40.668Z,18.20
2018-11-06T12:12:08.947Z,18.00
2018-11-06T12:14:37.198Z,18.13
2018-11-06T12:17:05.433Z,17.97
2018-11-06T12:19:33.716Z,18.33
2018-11-06T12:22:01.998Z,18.00
2018-11-06T12:24:30.322Z,17.60
2018-11-06T12:26:59.279Z,17.73
2018-11-06T12:29:27.534Z,16.93
2018-11-06T12:31:55.803Z,17.23
2018-11-06T12:34:24.047Z,17.50
2018-11-06T12:36:53.393Z,17.93
2018-11-06T12:39:21.646Z,18.23
2018-11-06T12:41:49.893Z,18.03
2018-11-06T12:44:18.172Z,18.33
2018-11-06T12:46:46.413Z,18.93
2018-11-06T12:49:14.686Z,18.10
2018-11-06T12:51:42.953Z,17.60
2018-11-06T12:54:11.188Z,17.63
2018-11-06T12:56:40.414Z,17.70
2018-11-06T12:59:08.681Z,17.57
2018-11-06T13:01:36.917Z,16.60
2018-11-06T13:04:05.961Z,17.83
2018-11-06T13:06:34.809Z,17.87
2018-11-06T13:09:03.051Z,18.57
2018-11-06T13:11:31.734Z,18.53
2018-11-06T13:14:00.012Z,20.20
2018-11-06T13:16:28.262Z,19.43
2018-11-06T13:18:56.526Z,19.10
2018-11-06T13:21:24.805Z,19.40
2018-11-06T13:23:53.087Z,18.20
2018-11-06T13:26:21.481Z,18.70
2018-11-06T13:28:49.611Z,18.37
2018-11-06T13:31:17.867Z,18.57
2018-11-06T13:33:46.898Z,19.17
2018-11-06T13:36:15.163Z,18.47
2018-11-06T13:38:43.426Z,19.63
2018-11-06T13:41:11.738Z,20.13
2018-11-06T13:43:40.172Z,18.97
2018-11-06T13:46:08.264Z,19.93
2018-11-06T13:48:36.590Z,20.07
2018-11-06T13:51:04.851Z,21.73
2018-11-06T13:53:33.097Z,21.30
2018-11-06T13:56:01.362Z,20.60
2018-11-06T13:58:29.609Z,20.90
2018-11-06T14:00:58.638Z,22.33
2018-11-06T14:03:26.890Z,22.23
2018-11-06T14:05:55.157Z,22.27
2018-11-06T14:08:25.114Z,21.93
2018-11-06T14:10:53.963Z,22.67
2018-11-06T14:13:23.003Z,30.90
2018-11-06T14:15:51.271Z,36.97
2018-11-06T14:18:19.527Z,39.17
2018-11-06T14:20:47.794Z,39.60
2018-11-06T14:23:16.066Z,38.77
2018-11-06T14:25:44.315Z,38.50
2018-11-06T14:28:13.337Z,39.63
2018-11-06T14:30:41.941Z,37.63
2018-11-06T14:33:10.189Z,38.63
2018-11-06T14:35:39.217Z,38.17
2018-11-06T14:38:07.469Z,50.70
2018-11-06T14:40:35.721Z,37.97
2018-11-06T14:43:04.790Z,44.93
2018-11-06T14:45:33.040Z,37.53
2018-11-06T14:48:01.413Z,31.47
2018-11-06T14:50:29.685Z,32.07
2018-11-06T14:52:57.934Z,31.43
2018-11-06T14:55:26.199Z,30.77
2018-11-06T14:57:55.231Z,30.67
2018-11-06T15:00:23.795Z,30.90
2018-11-06T15:02:52.047Z,30.97
2018-11-06T15:05:20.363Z,29.43
2018-11-06T15:07:49.501Z,27.13
2018-11-06T15:10:17.751Z,25.43
2018-11-06T15:12:47.182Z,26.97
2018-11-06T15:15:15.564Z,25.97
2018-11-06T15:17:43.814Z,28.43
2018-11-06T15:20:12.092Z,29.17
2018-11-06T15:22:40.367Z,29.37
2018-11-06T15:25:08.606Z,29.90
2018-11-06T15:27:36.960Z,30.37
2018-11-06T15:30:05.274Z,30.40
2018-11-06T15:32:34.284Z,30.40
2018-11-06T15:35:02.711Z,32.90
2018-11-06T15:37:30.956Z,32.73
2018-11-06T15:39:59.979Z,32.27
2018-11-06T15:42:28.225Z,30.83
2018-11-06T15:44:57.313Z,31.63
2018-11-06T15:47:25.547Z,30.40
2018-11-06T15:49:53.806Z,30.63
2018-11-06T15:52:22.074Z,29.33
2018-11-06T15:54:50.330Z,27.27
2018-11-06T15:57:18.938Z,26.33
2018-11-06T15:59:47.189Z,24.30
2018-11-06T16:02:16.207Z,25.07
2018-11-06T16:04:44.542Z,24.33
2018-11-06T16:07:12.764Z,24.57
2018-11-06T16:09:41.052Z,22.37
2018-11-06T16:12:09.314Z,20.93
2018-11-06T16:14:37.898Z,20.90
2018-11-06T16:17:06.150Z,21.70
2018-11-06T16:19:34.463Z,19.57
2018-11-06T16:22:02.711Z,20.73
2018-11-06T16:24:31.338Z,20.70
2018-11-06T16:26:59.573Z,20.97
2018-11-06T16:29:27.832Z,20.83
2018-11-06T16:31:56.113Z,22.43
2018-11-06T16:34:24.371Z,20.30
2018-11-06T16:36:53.402Z,20.30
2018-11-06T16:39:21.663Z,20.77
2018-11-06T16:41:49.913Z,20.93
2018-11-06T16:44:19.237Z,20.73
2018-11-06T16:46:47.506Z,21.30
2018-11-06T16:49:15.778Z,20.93
2018-11-06T16:51:44.062Z,21.50
2018-11-06T16:54:12.558Z,26.70
2018-11-06T16:56:40.848Z,22.77
2018-11-06T16:59:09.083Z,21.47
2018-11-06T17:01:37.342Z,23.30
2018-11-06T17:04:06.500Z,22.90
2018-11-06T17:06:34.862Z,23.83
2018-11-06T17:09:03.026Z,23.67
2018-11-06T17:11:31.423Z,21.53
2018-11-06T17:13:59.684Z,20.07
2018-11-06T17:16:27.926Z,20.50
2018-11-06T17:18:56.236Z,20.27
2018-11-06T17:21:24.482Z,20.03
2018-11-06T17:23:52.731Z,21.50
2018-11-06T17:26:21.775Z,21.40
2018-11-06T17:28:50.052Z,20.07
2018-11-06T17:31:18.294Z,21.97
2018-11-06T17:33:46.574Z,20.67
2018-11-06T17:36:14.847Z,21.53
2018-11-06T17:38:43.130Z,20.93
2018-11-06T17:41:12.171Z,19.83
2018-11-06T17:43:40.477Z,21.33
2018-11-06T17:46:09.521Z,21.30
2018-11-06T17:48:37.811Z,19.63
2018-11-06T17:51:06.074Z,20.23
2018-11-06T17:53:34.334Z,19.13
2018-11-06T17:56:02.589Z,19.90
2018-11-06T17:58:30.875Z,20.23
2018-11-06T18:00:59.151Z,18.83
2018-11-06T18:03:27.401Z,18.27
2018-11-06T18:05:55.661Z,18.23
2018-11-06T18:08:23.939Z,19.80
2018-11-06T18:10:54.146Z,20.63
2018-11-06T18:13:22.439Z,18.17
2018-11-06T18:15:51.473Z,18.37
2018-11-06T18:18:19.734Z,18.53
2018-11-06T18:20:48.017Z,18.80
2018-11-06T18:23:16.288Z,17.73
2018-11-06T18:25:44.874Z,19.50
2018-11-06T18:28:12.841Z,18.70
2018-11-06T18:30:41.143Z,18.40
2018-11-06T18:33:09.398Z,18.60
2018-11-06T18:35:37.678Z,18.70
2018-11-06T18:38:06.273Z,17.97
2018-11-06T18:40:34.530Z,18.63
2018-11-06T18:43:02.783Z,18.10
2018-11-06T18:45:31.139Z,17.67
2018-11-06T18:47:59.415Z,18.07
2018-11-06T18:50:28.468Z,18.17
2018-11-06T18:52:56.716Z,17.87
2018-11-06T18:55:24.991Z,18.00
2018-11-06T18:57:53.352Z,17.93
2018-11-06T19:00:21.561Z,17.07
2018-11-06T19:02:49.853Z,17.37
2018-11-06T19:05:18.118Z,17.40
2018-11-06T19:07:46.398Z,16.57
2018-11-06T19:10:14.683Z,16.80
2018-11-06T19:12:42.959Z,16.63
2018-11-06T19:15:11.238Z,16.70
2018-11-06T19:17:39.535Z,16.43
2018-11-06T19:20:07.804Z,15.57
2018-11-06T19:22:36.828Z,16.80
2018-11-06T19:25:05.094Z,15.50
2018-11-06T19:27:33.381Z,15.50
2018-11-06T19:30:02.404Z,15.83
2018-11-06T19:32:30.643Z,15.03
2018-11-06T19:34:58.923Z,15.20
2018-11-06T19:37:27.189Z,15.77
2018-11-06T19:39:55.474Z,16.10
2018-11-06T19:42:24.501Z,16.07
2018-11-06T19:44:52.760Z,14.87
2018-11-06T19:47:21.047Z,14.97
2018-11-06T19:49:49.301Z,15.73
2018-11-06T19:52:18.568Z,15.27
2018-11-06T19:54:47.579Z,14.07
2018-11-06T19:57:15.973Z,14.87
2018-11-06T19:59:44.221Z,14.37
2018-11-06T20:02:13.262Z,15.97
2018-11-06T20:04:41.648Z,14.93
2018-11-06T20:07:09.828Z,14.47
2018-11-06T20:09:38.083Z,13.83
2018-11-06T20:12:07.565Z,14.07
2018-11-06T20:14:36.552Z,15.37
2018-11-06T20:17:04.819Z,13.87
2018-11-06T20:19:33.070Z,13.57
2018-11-06T20:22:02.268Z,13.80
2018-11-06T20:24:30.498Z,14.20
2018-11-06T20:26:58.766Z,12.80
2018-11-06T20:29:27.063Z,12.73
2018-11-06T20:31:55.303Z,12.97
2018-11-06T20:34:23.583Z,13.43
2018-11-06T20:36:51.890Z,13.53
2018-11-06T20:39:20.819Z,12.30
2018-11-06T20:41:49.850Z,12.37
2018-11-06T20:44:18.132Z,12.43
2018-11-06T20:46:46.394Z,12.83
2018-11-06T20:49:14.679Z,13.60
2018-11-06T20:51:42.934Z,13.47
2018-11-06T20:54:11.275Z,11.37
2018-11-06T20:56:39.527Z,8.90
2018-11-06T20:59:07.912Z,10.50
2018-11-06T21:01:36.184Z,11.73
2018-11-06T21:04:04.436Z,11.07
2018-11-06T21:06:32.717Z,10.77
2018-11-06T21:09:00.979Z,10.13
2018-11-06T21:11:29.755Z,9.97
2018-11-06T21:13:58.015Z,9.97
2018-11-06T21:16:27.070Z,11.93
2018-11-06T21:18:55.330Z,11.23
2018-11-06T21:21:23.578Z,12.50
2018-11-06T21:23:52.470Z,12.73
2018-11-06T21:26:20.847Z,12.17
2018-11-06T21:28:48.989Z,12.13
2018-11-06T21:31:18.136Z,12.27
2018-11-06T21:33:46.414Z,12.13
2018-11-06T21:36:14.655Z,12.70
2018-11-06T21:38:42.924Z,12.77
2018-11-06T21:41:11.210Z,12.80
2018-11-06T21:46:14.094Z,12.03
2018-11-06T21:48:42.349Z,12.90
2018-11-06T21:51:11.387Z,12.93
2018-11-06T21:53:40.202Z,11.60
2018-11-06T21:56:08.539Z,11.20
2018-11-06T21:58:36.823Z,12.07
2018-11-06T22:01:05.819Z,13.17
2018-11-06T22:03:34.078Z,12.83
2018-11-06T22:06:02.341Z,12.80
2018-11-06T22:08:30.615Z,13.20
2018-11-06T22:10:58.869Z,13.27
2018-11-06T22:13:27.946Z,12.53
2018-11-06T22:15:56.206Z,13.33
2018-11-06T22:18:24.458Z,12.63
2018-11-06T22:20:52.734Z,12.93
2018-11-06T22:23:20.973Z,11.83
2018-11-06T22:25:50.004Z,13.63
2018-11-06T22:28:18.316Z,13.47
2018-11-06T22:30:46.586Z,12.97
2018-11-06T22:33:14.830Z,12.77
2018-11-06T22:35:43.681Z,12.63
2018-11-06T22:38:12.784Z,11.73
2018-11-06T22:40:40.966Z,12.17
2018-11-06T22:43:09.219Z,11.90
2018-11-06T22:45:38.245Z,12.17
2018-11-06T22:48:06.559Z,12.30
2018-11-06T22:50:34.782Z,11.60
2018-11-06T22:53:03.088Z,11.73
2018-11-06T22:55:31.322Z,8.80
2018-11-06T22:58:00.347Z,11.17
2018-11-06T23:00:28.613Z,11.27
2018-11-06T23:02:56.905Z,11.13
2018-11-06T23:05:25.151Z,12.03
2018-11-06T23:07:53.404Z,12.47
2018-11-06T23:10:22.476Z,12.30
2018-11-06T23:12:50.661Z,11.70
2018-11-06T23:15:19.684Z,11.63
2018-11-06T23:17:48.950Z,11.37
2018-11-06T23:20:17.986Z,11.47
2018-11-06T23:22:46.248Z,10.53
2018-11-06T23:25:15.272Z,12.03
2018-11-06T23:27:43.514Z,11.50
2018-11-06T23:30:11.763Z,12.83
2018-11-06T23:32:40.782Z,11.70
2018-11-06T23:35:09.034Z,10.03
2018-11-06T23:37:38.048Z,8.20
2018-11-06T23:40:06.337Z,9.13
2018-11-06T23:42:35.373Z,8.90
2018-11-06T23:45:03.634Z,10.10
2018-11-06T23:47:31.875Z,9.27
2018-11-06T23:50:00.129Z,10.90
2018-11-06T23:52:29.142Z,10.40
2018-11-06T23:54:57.660Z,10.57
2018-11-06T23:57:25.910Z,10.37
2018-11-06T23:59:54.159Z,10.50
